sensor_id;sensor_type;location;lat;lon;timestamp;P1;durP1;ratioP1;P2;durP2;ratioP2
14722;SDS011;7452;55.594;12.986;2023-03-31T00:02:02;15.43;;;7.40;;
14722;SDS011;7452;55.594;12.986;2023-03-31T00:04:31;18.20;;;7.10;;
14722;SDS011;7452;55.594;12.986;2023-03-31T00:06:59;21.20;;;7.87;;
14722;SDS011;7452;55.594;12.986;2023-03-31T00:09:26;16.03;;;7.27;;
14722;SDS011;7452;55.594;12.986;2023-03-31T00:11:55;21.90;;;8.10;;
14722;SDS011;7452;55.594;12.986;2023-03-31T00:14:22;20.53;;;8.00;;
14722;SDS011;7452;55.594;12.986;2023-03-31T00:16:50;18.53;;;8.20;;
14722;SDS011;7452;55.594;12.986;2023-03-31T00:19:17;17.80;;;7.37;;
14722;SDS011;7452;55.594;12.986;2023-03-31T00:21:45;27.20;;;7.87;;
14722;SDS011;7452;55.594;12.986;2023-03-31T00:24:15;22.97;;;8.80;;
14722;SDS011;7452;55.594;12.986;2023-03-31T00:26:42;16.73;;;8.40;;
14722;SDS011;7452;55.594;12.986;2023-03-31T00:29:12;22.33;;;8.13;;
14722;SDS011;7452;55.594;12.986;2023-03-31T00:31:41;23.13;;;8.43;;
14722;SDS011;7452;55.594;12.986;2023-03-31T00:34:08;20.67;;;9.13;;
14722;SDS011;7452;55.594;12.986;2023-03-31T00:36:35;18.30;;;8.07;;
14722;SDS011;7452;55.594;12.986;2023-03-31T00:39:12;19.67;;;8.40;;
14722;SDS011;7452;55.594;12.986;2023-03-31T00:41:42;20.43;;;8.47;;
14722;SDS011;7452;55.594;12.986;2023-03-31T00:44:12;20.53;;;8.43;;
14722;SDS011;7452;55.594;12.986;2023-03-31T00:46:47;18.13;;;8.20;;
14722;SDS011;7452;55.594;12.986;2023-03-31T00:49:18;14.57;;;8.00;;
14722;SDS011;7452;55.594;12.986;2023-03-31T00:51:51;14.60;;;6.77;;
14722;SDS011;7452;55.594;12.986;2023-03-31T00:54:21;13.00;;;6.67;;
14722;SDS011;7452;55.594;12.986;2023-03-31T00:56:50;17.53;;;7.43;;
14722;SDS011;7452;55.594;12.986;2023-03-31T00:59:24;16.00;;;7.10;;
14722;SDS011;7452;55.594;12.986;2023-03-31T01:01:53;15.40;;;6.97;;
14722;SDS011;7452;55.594;12.986;2023-03-31T01:04:23;16.13;;;6.53;;
14722;SDS011;7452;55.594;12.986;2023-03-31T01:06:53;12.30;;;6.67;;
14722;SDS011;7452;55.594;12.986;2023-03-31T01:09:25;15.00;;;6.77;;
14722;SDS011;7452;55.594;12.986;2023-03-31T01:11:59;16.50;;;7.27;;
14722;SDS011;7452;55.594;12.986;2023-03-31T01:14:30;10.27;;;6.30;;
14722;SDS011;7452;55.594;12.986;2023-03-31T01:17:00;16.43;;;6.10;;
14722;SDS011;7452;55.594;12.986;2023-03-31T01:19:33;13.17;;;7.20;;
14722;SDS011;7452;55.594;12.986;2023-03-31T01:25:37;10.37;;;5.90;;
14722;SDS011;7452;55.594;12.986;2023-03-31T01:28:35;15.17;;;7.03;;
14722;SDS011;7452;55.594;12.986;2023-03-31T01:37:29;11.07;;;6.93;;
14722;SDS011;7452;55.594;12.986;2023-03-31T01:43:18;7.73;;;5.73;;
14722;SDS011;7452;55.594;12.986;2023-03-31T01:45:52;9.53;;;6.20;;
14722;SDS011;7452;55.594;12.986;2023-03-31T01:48:26;7.40;;;5.70;;
14722;SDS011;7452;55.594;12.986;2023-03-31T01:51:00;8.53;;;5.60;;
14722;SDS011;7452;55.594;12.986;2023-03-31T01:53:32;8.40;;;5.63;;
14722;SDS011;7452;55.594;12.986;2023-03-31T01:56:09;7.77;;;5.47;;
14722;SDS011;7452;55.594;12.986;2023-03-31T01:58:43;7.27;;;5.13;;
14722;SDS011;7452;55.594;12.986;2023-03-31T02:01:17;8.83;;;5.53;;
14722;SDS011;7452;55.594;12.986;2023-03-31T02:03:49;8.20;;;5.30;;
14722;SDS011;7452;55.594;12.986;2023-03-31T02:06:22;10.30;;;5.77;;
14722;SDS011;7452;55.594;12.986;2023-03-31T02:08:53;9.27;;;6.27;;
14722;SDS011;7452;55.594;12.986;2023-03-31T02:11:23;10.97;;;6.30;;
14722;SDS011;7452;55.594;12.986;2023-03-31T02:13:53;10.23;;;6.37;;
14722;SDS011;7452;55.594;12.986;2023-03-31T02:16:25;11.63;;;6.77;;
14722;SDS011;7452;55.594;12.986;2023-03-31T02:18:57;13.00;;;6.63;;
14722;SDS011;7452;55.594;12.986;2023-03-31T02:21:28;10.27;;;6.57;;
14722;SDS011;7452;55.594;12.986;2023-03-31T02:23:57;12.90;;;7.53;;
14722;SDS011;7452;55.594;12.986;2023-03-31T02:26:28;11.83;;;7.10;;
14722;SDS011;7452;55.594;12.986;2023-03-31T02:29:00;13.00;;;6.70;;
14722;SDS011;7452;55.594;12.986;2023-03-31T02:31:28;10.87;;;6.70;;
14722;SDS011;7452;55.594;12.986;2023-03-31T02:34:03;10.40;;;6.20;;
14722;SDS011;7452;55.594;12.986;2023-03-31T02:36:30;11.63;;;6.80;;
14722;SDS011;7452;55.594;12.986;2023-03-31T02:38:59;12.03;;;6.33;;
14722;SDS011;7452;55.594;12.986;2023-03-31T02:41:31;12.20;;;6.60;;
14722;SDS011;7452;55.594;12.986;2023-03-31T02:44:01;9.50;;;6.27;;
14722;SDS011;7452;55.594;12.986;2023-03-31T02:46:29;10.00;;;5.97;;
14722;SDS011;7452;55.594;12.986;2023-03-31T02:48:58;10.93;;;6.17;;
14722;SDS011;7452;55.594;12.986;2023-03-31T02:51:48;12.47;;;6.30;;
14722;SDS011;7452;55.594;12.986;2023-03-31T02:54:42;11.27;;;6.07;;
14722;SDS011;7452;55.594;12.986;2023-03-31T02:57:36;9.67;;;5.03;;
14722;SDS011;7452;55.594;12.986;2023-03-31T03:00:15;16.53;;;6.00;;
14722;SDS011;7452;55.594;12.986;2023-03-31T03:02:55;8.40;;;4.87;;
14722;SDS011;7452;55.594;12.986;2023-03-31T03:05:31;7.87;;;4.63;;
14722;SDS011;7452;55.594;12.986;2023-03-31T03:08:14;10.17;;;4.80;;
14722;SDS011;7452;55.594;12.986;2023-03-31T03:10:52;9.20;;;5.33;;
14722;SDS011;7452;55.594;12.986;2023-03-31T03:13:29;9.00;;;5.27;;
14722;SDS011;7452;55.594;12.986;2023-03-31T03:16:04;9.90;;;5.10;;
14722;SDS011;7452;55.594;12.986;2023-03-31T03:18:37;10.60;;;5.27;;
14722;SDS011;7452;55.594;12.986;2023-03-31T03:21:07;11.17;;;5.67;;
14722;SDS011;7452;55.594;12.986;2023-03-31T03:23:33;13.37;;;6.03;;
14722;SDS011;7452;55.594;12.986;2023-03-31T03:26:01;9.53;;;5.00;;
14722;SDS011;7452;55.594;12.986;2023-03-31T03:28:28;13.87;;;5.40;;
14722;SDS011;7452;55.594;12.986;2023-03-31T03:30:56;15.00;;;6.23;;
14722;SDS011;7452;55.594;12.986;2023-03-31T03:33:24;10.97;;;5.57;;
14722;SDS011;7452;55.594;12.986;2023-03-31T03:35:53;12.20;;;5.53;;
14722;SDS011;7452;55.594;12.986;2023-03-31T03:38:20;11.27;;;5.53;;
14722;SDS011;7452;55.594;12.986;2023-03-31T03:40:51;11.87;;;5.60;;
14722;SDS011;7452;55.594;12.986;2023-03-31T03:43:19;12.37;;;6.00;;
14722;SDS011;7452;55.594;12.986;2023-03-31T03:45:48;17.27;;;5.73;;
14722;SDS011;7452;55.594;12.986;2023-03-31T03:48:15;17.27;;;6.47;;
14722;SDS011;7452;55.594;12.986;2023-03-31T03:50:47;19.57;;;6.33;;
14722;SDS011;7452;55.594;12.986;2023-03-31T03:53:14;14.53;;;6.00;;
14722;SDS011;7452;55.594;12.986;2023-03-31T03:55:41;19.13;;;7.27;;
14722;SDS011;7452;55.594;12.986;2023-03-31T03:58:09;16.27;;;6.63;;
14722;SDS011;7452;55.594;12.986;2023-03-31T04:00:37;15.23;;;7.10;;
14722;SDS011;7452;55.594;12.986;2023-03-31T04:03:04;17.50;;;6.67;;
14722;SDS011;7452;55.594;12.986;2023-03-31T04:05:31;20.87;;;7.57;;
14722;SDS011;7452;55.594;12.986;2023-03-31T04:08:01;18.27;;;7.10;;
14722;SDS011;7452;55.594;12.986;2023-03-31T04:10:28;15.50;;;7.53;;
14722;SDS011;7452;55.594;12.986;2023-03-31T04:12:56;18.77;;;7.80;;
14722;SDS011;7452;55.594;12.986;2023-03-31T04:15:23;26.40;;;8.83;;
14722;SDS011;7452;55.594;12.986;2023-03-31T04:17:50;23.27;;;8.53;;
14722;SDS011;7452;55.594;12.986;2023-03-31T04:20:19;21.80;;;9.43;;
14722;SDS011;7452;55.594;12.986;2023-03-31T04:22:51;20.77;;;9.20;;
14722;SDS011;7452;55.594;12.986;2023-03-31T04:25:25;25.40;;;9.50;;
14722;SDS011;7452;55.594;12.986;2023-03-31T04:27:54;24.67;;;10.33;;
14722;SDS011;7452;55.594;12.986;2023-03-31T04:30:22;22.43;;;9.73;;
14722;SDS011;7452;55.594;12.986;2023-03-31T04:32:55;23.30;;;9.53;;
14722;SDS011;7452;55.594;12.986;2023-03-31T04:35:25;20.20;;;9.17;;
14722;SDS011;7452;55.594;12.986;2023-03-31T04:38:13;21.93;;;9.87;;
14722;SDS011;7452;55.594;12.986;2023-03-31T04:40:44;21.27;;;9.20;;
14722;SDS011;7452;55.594;12.986;2023-03-31T04:43:11;21.80;;;9.70;;
14722;SDS011;7452;55.594;12.986;2023-03-31T04:45:39;25.60;;;9.53;;
14722;SDS011;7452;55.594;12.986;2023-03-31T04:48:06;20.87;;;9.97;;
14722;SDS011;7452;55.594;12.986;2023-03-31T04:50:35;20.37;;;8.63;;
14722;SDS011;7452;55.594;12.986;2023-03-31T04:53:02;25.90;;;10.00;;
14722;SDS011;7452;55.594;12.986;2023-03-31T04:55:31;22.73;;;9.53;;
14722;SDS011;7452;55.594;12.986;2023-03-31T04:58:02;21.40;;;9.80;;
14722;SDS011;7452;55.594;12.986;2023-03-31T05:00:30;22.43;;;8.97;;
14722;SDS011;7452;55.594;12.986;2023-03-31T05:02:58;20.10;;;8.90;;
14722;SDS011;7452;55.594;12.986;2023-03-31T05:05:25;22.57;;;8.50;;
14722;SDS011;7452;55.594;12.986;2023-03-31T05:07:53;24.10;;;9.33;;
14722;SDS011;7452;55.594;12.986;2023-03-31T05:10:20;23.47;;;8.97;;
14722;SDS011;7452;55.594;12.986;2023-03-31T05:12:48;22.63;;;8.70;;
14722;SDS011;7452;55.594;12.986;2023-03-31T05:15:20;22.07;;;9.13;;
14722;SDS011;7452;55.594;12.986;2023-03-31T05:17:48;18.00;;;9.07;;
14722;SDS011;7452;55.594;12.986;2023-03-31T05:20:16;26.47;;;9.30;;
14722;SDS011;7452;55.594;12.986;2023-03-31T05:22:47;21.47;;;8.43;;
14722;SDS011;7452;55.594;12.986;2023-03-31T05:25:15;22.17;;;8.73;;
14722;SDS011;7452;55.594;12.986;2023-03-31T05:27:44;24.20;;;8.60;;
14722;SDS011;7452;55.594;12.986;2023-03-31T05:30:12;25.03;;;8.87;;
14722;SDS011;7452;55.594;12.986;2023-03-31T05:32:44;26.73;;;9.37;;
14722;SDS011;7452;55.594;12.986;2023-03-31T05:35:11;18.83;;;8.53;;
14722;SDS011;7452;55.594;12.986;2023-03-31T05:37:38;23.03;;;8.30;;
14722;SDS011;7452;55.594;12.986;2023-03-31T05:40:06;19.67;;;8.50;;
14722;SDS011;7452;55.594;12.986;2023-03-31T05:42:34;19.53;;;9.17;;
14722;SDS011;7452;55.594;12.986;2023-03-31T05:45:03;27.10;;;9.13;;
14722;SDS011;7452;55.594;12.986;2023-03-31T05:47:32;22.40;;;8.60;;
14722;SDS011;7452;55.594;12.986;2023-03-31T05:50:00;29.17;;;9.67;;
14722;SDS011;7452;55.594;12.986;2023-03-31T05:52:31;22.90;;;9.20;;
14722;SDS011;7452;55.594;12.986;2023-03-31T05:54:58;17.47;;;9.00;;
14722;SDS011;7452;55.594;12.986;2023-03-31T05:57:25;22.70;;;8.50;;
14722;SDS011;7452;55.594;12.986;2023-03-31T05:59:52;21.23;;;8.20;;
14722;SDS011;7452;55.594;12.986;2023-03-31T06:02:19;16.33;;;7.50;;
14722;SDS011;7452;55.594;12.986;2023-03-31T06:04:47;21.50;;;8.17;;
14722;SDS011;7452;55.594;12.986;2023-03-31T06:07:15;21.63;;;8.37;;
14722;SDS011;7452;55.594;12.986;2023-03-31T06:09:44;18.87;;;8.03;;
14722;SDS011;7452;55.594;12.986;2023-03-31T06:12:11;25.87;;;8.73;;
14722;SDS011;7452;55.594;12.986;2023-03-31T06:14:38;24.17;;;8.53;;
14722;SDS011;7452;55.594;12.986;2023-03-31T06:17:05;23.47;;;9.10;;
14722;SDS011;7452;55.594;12.986;2023-03-31T06:19:32;24.03;;;8.47;;
14722;SDS011;7452;55.594;12.986;2023-03-31T06:21:59;25.30;;;9.37;;
14722;SDS011;7452;55.594;12.986;2023-03-31T06:24:29;26.70;;;9.10;;
14722;SDS011;7452;55.594;12.986;2023-03-31T06:26:56;32.17;;;9.00;;
14722;SDS011;7452;55.594;12.986;2023-03-31T06:29:24;24.27;;;9.23;;
14722;SDS011;7452;55.594;12.986;2023-03-31T06:31:51;21.57;;;9.07;;
14722;SDS011;7452;55.594;12.986;2023-03-31T06:34:18;31.90;;;9.80;;
14722;SDS011;7452;55.594;12.986;2023-03-31T06:36:46;26.60;;;8.87;;
14722;SDS011;7452;55.594;12.986;2023-03-31T06:39:13;31.67;;;9.67;;
14722;SDS011;7452;55.594;12.986;2023-03-31T06:41:42;28.33;;;10.13;;
14722;SDS011;7452;55.594;12.986;2023-03-31T06:44:09;32.17;;;10.00;;
14722;SDS011;7452;55.594;12.986;2023-03-31T06:46:36;36.60;;;10.70;;
14722;SDS011;7452;55.594;12.986;2023-03-31T06:49:03;34.80;;;10.53;;
14722;SDS011;7452;55.594;12.986;2023-03-31T06:51:30;37.57;;;10.47;;
14722;SDS011;7452;55.594;12.986;2023-03-31T06:53:58;33.33;;;10.60;;
14722;SDS011;7452;55.594;12.986;2023-03-31T06:56:25;30.03;;;10.40;;
14722;SDS011;7452;55.594;12.986;2023-03-31T06:58:54;31.17;;;10.23;;
14722;SDS011;7452;55.594;12.986;2023-03-31T07:01:21;27.93;;;9.17;;
14722;SDS011;7452;55.594;12.986;2023-03-31T07:03:48;29.17;;;9.90;;
14722;SDS011;7452;55.594;12.986;2023-03-31T07:06:15;27.93;;;9.03;;
14722;SDS011;7452;55.594;12.986;2023-03-31T07:08:42;32.80;;;9.20;;
14722;SDS011;7452;55.594;12.986;2023-03-31T07:11:10;31.20;;;9.80;;
14722;SDS011;7452;55.594;12.986;2023-03-31T07:13:38;30.23;;;9.00;;
14722;SDS011;7452;55.594;12.986;2023-03-31T07:16:08;27.73;;;9.23;;
14722;SDS011;7452;55.594;12.986;2023-03-31T07:18:38;28.17;;;10.20;;
14722;SDS011;7452;55.594;12.986;2023-03-31T07:21:06;25.97;;;8.70;;
14722;SDS011;7452;55.594;12.986;2023-03-31T07:23:34;23.03;;;9.37;;
14722;SDS011;7452;55.594;12.986;2023-03-31T07:26:03;25.73;;;9.33;;
14722;SDS011;7452;55.594;12.986;2023-03-31T07:28:30;26.63;;;9.53;;
14722;SDS011;7452;55.594;12.986;2023-03-31T07:30:58;28.97;;;9.13;;
14722;SDS011;7452;55.594;12.986;2023-03-31T07:33:28;30.30;;;9.40;;
14722;SDS011;7452;55.594;12.986;2023-03-31T07:35:56;21.40;;;9.30;;
14722;SDS011;7452;55.594;12.986;2023-03-31T07:38:23;25.40;;;9.03;;
14722;SDS011;7452;55.594;12.986;2023-03-31T07:40:51;23.67;;;9.27;;
14722;SDS011;7452;55.594;12.986;2023-03-31T07:43:18;22.27;;;10.13;;
14722;SDS011;7452;55.594;12.986;2023-03-31T07:45:47;19.87;;;9.60;;
14722;SDS011;7452;55.594;12.986;2023-03-31T07:48:13;21.13;;;9.57;;
14722;SDS011;7452;55.594;12.986;2023-03-31T07:50:42;26.40;;;9.87;;
14722;SDS011;7452;55.594;12.986;2023-03-31T07:53:09;23.90;;;9.40;;
14722;SDS011;7452;55.594;12.986;2023-03-31T07:55:36;20.70;;;9.17;;
14722;SDS011;7452;55.594;12.986;2023-03-31T07:58:06;24.50;;;10.17;;
14722;SDS011;7452;55.594;12.986;2023-03-31T08:00:33;25.30;;;10.57;;
14722;SDS011;7452;55.594;12.986;2023-03-31T08:02:59;26.03;;;11.07;;
14722;SDS011;7452;55.594;12.986;2023-03-31T08:05:27;32.23;;;11.27;;
14722;SDS011;7452;55.594;12.986;2023-03-31T08:07:56;38.63;;;12.37;;
14722;SDS011;7452;55.594;12.986;2023-03-31T08:10:25;33.50;;;11.67;;
14722;SDS011;7452;55.594;12.986;2023-03-31T08:12:53;28.83;;;11.47;;
14722;SDS011;7452;55.594;12.986;2023-03-31T08:15:20;30.53;;;11.10;;
14722;SDS011;7452;55.594;12.986;2023-03-31T08:17:47;28.73;;;11.53;;
14722;SDS011;7452;55.594;12.986;2023-03-31T08:20:14;27.83;;;11.23;;
14722;SDS011;7452;55.594;12.986;2023-03-31T08:22:41;21.10;;;9.90;;
14722;SDS011;7452;55.594;12.986;2023-03-31T08:25:10;24.87;;;10.20;;
14722;SDS011;7452;55.594;12.986;2023-03-31T08:27:41;28.40;;;11.07;;
14722;SDS011;7452;55.594;12.986;2023-03-31T08:30:08;23.93;;;11.13;;
14722;SDS011;7452;55.594;12.986;2023-03-31T08:32:36;28.73;;;11.27;;
14722;SDS011;7452;55.594;12.986;2023-03-31T08:35:04;28.80;;;11.33;;
14722;SDS011;7452;55.594;12.986;2023-03-31T08:37:32;28.87;;;13.23;;
14722;SDS011;7452;55.594;12.986;2023-03-31T08:39:59;34.10;;;12.90;;
14722;SDS011;7452;55.594;12.986;2023-03-31T08:42:34;33.60;;;12.23;;
14722;SDS011;7452;55.594;12.986;2023-03-31T08:45:04;33.40;;;13.37;;
14722;SDS011;7452;55.594;12.986;2023-03-31T08:47:36;34.60;;;12.50;;
14722;SDS011;7452;55.594;12.986;2023-03-31T08:50:05;36.77;;;13.47;;
14722;SDS011;7452;55.594;12.986;2023-03-31T08:52:38;39.43;;;14.97;;
14722;SDS011;7452;55.594;12.986;2023-03-31T08:55:10;43.83;;;12.43;;
14722;SDS011;7452;55.594;12.986;2023-03-31T08:57:46;28.70;;;12.50;;
14722;SDS011;7452;55.594;12.986;2023-03-31T09:00:20;34.13;;;13.00;;
14722;SDS011;7452;55.594;12.986;2023-03-31T09:02:48;33.93;;;12.23;;
14722;SDS011;7452;55.594;12.986;2023-03-31T09:08:12;28.20;;;11.07;;
14722;SDS011;7452;55.594;12.986;2023-03-31T09:10:50;35.23;;;12.33;;
14722;SDS011;7452;55.594;12.986;2023-03-31T09:16:16;26.83;;;10.40;;
14722;SDS011;7452;55.594;12.986;2023-03-31T09:18:49;30.47;;;11.43;;
14722;SDS011;7452;55.594;12.986;2023-03-31T09:21:20;31.77;;;11.50;;
14722;SDS011;7452;55.594;12.986;2023-03-31T09:23:52;27.17;;;11.30;;
14722;SDS011;7452;55.594;12.986;2023-03-31T09:26:24;27.17;;;11.97;;
14722;SDS011;7452;55.594;12.986;2023-03-31T09:28:57;32.23;;;12.30;;
14722;SDS011;7452;55.594;12.986;2023-03-31T09:31:28;23.37;;;10.27;;
14722;SDS011;7452;55.594;12.986;2023-03-31T09:33:56;24.57;;;10.83;;
14722;SDS011;7452;55.594;12.986;2023-03-31T09:36:26;29.10;;;10.87;;
14722;SDS011;7452;55.594;12.986;2023-03-31T09:38:53;22.77;;;9.53;;
14722;SDS011;7452;55.594;12.986;2023-03-31T09:41:20;22.57;;;9.27;;
14722;SDS011;7452;55.594;12.986;2023-03-31T09:43:47;19.27;;;8.23;;
14722;SDS011;7452;55.594;12.986;2023-03-31T09:46:17;20.00;;;8.20;;
14722;SDS011;7452;55.594;12.986;2023-03-31T09:48:51;17.57;;;7.87;;
14722;SDS011;7452;55.594;12.986;2023-03-31T09:51:22;19.97;;;7.67;;
14722;SDS011;7452;55.594;12.986;2023-03-31T09:53:55;17.30;;;7.93;;
14722;SDS011;7452;55.594;12.986;2023-03-31T09:56:32;19.77;;;8.33;;
14722;SDS011;7452;55.594;12.986;2023-03-31T09:59:11;13.33;;;6.53;;
14722;SDS011;7452;55.594;12.986;2023-03-31T10:01:40;14.57;;;6.83;;
14722;SDS011;7452;55.594;12.986;2023-03-31T10:04:10;14.10;;;6.93;;
14722;SDS011;7452;55.594;12.986;2023-03-31T10:06:47;17.73;;;7.10;;
14722;SDS011;7452;55.594;12.986;2023-03-31T10:09:14;13.77;;;5.80;;
14722;SDS011;7452;55.594;12.986;2023-03-31T10:11:51;12.30;;;6.47;;
14722;SDS011;7452;55.594;12.986;2023-03-31T10:14:23;14.03;;;6.63;;
14722;SDS011;7452;55.594;12.986;2023-03-31T10:16:53;14.47;;;5.73;;
14722;SDS011;7452;55.594;12.986;2023-03-31T10:19:23;9.77;;;4.80;;
14722;SDS011;7452;55.594;12.986;2023-03-31T10:21:55;11.40;;;4.93;;
14722;SDS011;7452;55.594;12.986;2023-03-31T10:24:23;14.47;;;5.20;;
14722;SDS011;7452;55.594;12.986;2023-03-31T10:26:53;13.93;;;5.53;;
14722;SDS011;7452;55.594;12.986;2023-03-31T10:29:26;11.83;;;4.90;;
14722;SDS011;7452;55.594;12.986;2023-03-31T10:31:59;11.00;;;4.67;;
14722;SDS011;7452;55.594;12.986;2023-03-31T10:34:30;12.20;;;5.57;;
14722;SDS011;7452;55.594;12.986;2023-03-31T10:36:58;10.33;;;5.07;;
14722;SDS011;7452;55.594;12.986;2023-03-31T10:39:28;12.00;;;5.10;;
14722;SDS011;7452;55.594;12.986;2023-03-31T10:41:58;9.93;;;4.30;;
14722;SDS011;7452;55.594;12.986;2023-03-31T10:44:32;9.83;;;4.20;;
14722;SDS011;7452;55.594;12.986;2023-03-31T10:47:16;8.20;;;3.30;;
14722;SDS011;7452;55.594;12.986;2023-03-31T10:49:46;7.20;;;3.43;;
14722;SDS011;7452;55.594;12.986;2023-03-31T10:52:16;9.70;;;3.87;;
14722;SDS011;7452;55.594;12.986;2023-03-31T10:54:45;11.80;;;3.80;;
14722;SDS011;7452;55.594;12.986;2023-03-31T10:57:18;11.30;;;4.47;;
14722;SDS011;7452;55.594;12.986;2023-03-31T10:59:57;9.47;;;4.53;;
14722;SDS011;7452;55.594;12.986;2023-03-31T11:05:35;10.83;;;4.80;;
14722;SDS011;7452;55.594;12.986;2023-03-31T11:08:15;11.80;;;4.57;;
14722;SDS011;7452;55.594;12.986;2023-03-31T11:10:54;11.10;;;5.47;;
14722;SDS011;7452;55.594;12.986;2023-03-31T11:13:43;10.07;;;5.37;;
14722;SDS011;7452;55.594;12.986;2023-03-31T11:16:17;12.73;;;5.70;;
14722;SDS011;7452;55.594;12.986;2023-03-31T11:18:54;12.83;;;5.20;;
14722;SDS011;7452;55.594;12.986;2023-03-31T11:21:33;13.17;;;5.70;;
14722;SDS011;7452;55.594;12.986;2023-03-31T11:24:09;10.57;;;5.13;;
14722;SDS011;7452;55.594;12.986;2023-03-31T11:26:48;13.90;;;5.80;;
14722;SDS011;7452;55.594;12.986;2023-03-31T11:29:28;12.97;;;6.37;;
14722;SDS011;7452;55.594;12.986;2023-03-31T11:32:04;13.20;;;6.70;;
14722;SDS011;7452;55.594;12.986;2023-03-31T11:34:55;13.70;;;6.30;;
14722;SDS011;7452;55.594;12.986;2023-03-31T11:37:53;13.73;;;6.77;;
14722;SDS011;7452;55.594;12.986;2023-03-31T11:40:32;14.37;;;6.23;;
14722;SDS011;7452;55.594;12.986;2023-03-31T11:43:09;15.97;;;6.60;;
14722;SDS011;7452;55.594;12.986;2023-03-31T11:45:43;15.63;;;6.63;;
14722;SDS011;7452;55.594;12.986;2023-03-31T11:48:16;14.90;;;6.87;;
14722;SDS011;7452;55.594;12.986;2023-03-31T11:50:50;14.77;;;7.20;;
14722;SDS011;7452;55.594;12.986;2023-03-31T11:53:24;18.00;;;7.73;;
14722;SDS011;7452;55.594;12.986;2023-03-31T11:55:55;17.47;;;8.20;;
14722;SDS011;7452;55.594;12.986;2023-03-31T11:58:25;12.53;;;6.67;;
14722;SDS011;7452;55.594;12.986;2023-03-31T12:01:02;19.30;;;7.90;;
14722;SDS011;7452;55.594;12.986;2023-03-31T12:03:35;16.73;;;8.10;;
14722;SDS011;7452;55.594;12.986;2023-03-31T12:06:10;20.57;;;8.40;;
14722;SDS011;7452;55.594;12.986;2023-03-31T12:08:45;15.93;;;7.60;;
14722;SDS011;7452;55.594;12.986;2023-03-31T12:11:18;17.73;;;9.03;;
14722;SDS011;7452;55.594;12.986;2023-03-31T12:13:52;18.17;;;9.13;;
14722;SDS011;7452;55.594;12.986;2023-03-31T12:16:25;18.90;;;9.80;;
14722;SDS011;7452;55.594;12.986;2023-03-31T12:18:58;20.23;;;9.80;;
14722;SDS011;7452;55.594;12.986;2023-03-31T12:21:30;18.27;;;8.17;;
14722;SDS011;7452;55.594;12.986;2023-03-31T12:24:01;18.33;;;9.50;;
14722;SDS011;7452;55.594;12.986;2023-03-31T12:26:37;17.33;;;9.40;;
14722;SDS011;7452;55.594;12.986;2023-03-31T12:29:15;21.07;;;9.67;;
14722;SDS011;7452;55.594;12.986;2023-03-31T12:31:52;21.63;;;9.90;;
14722;SDS011;7452;55.594;12.986;2023-03-31T12:34:24;21.03;;;9.70;;
14722;SDS011;7452;55.594;12.986;2023-03-31T12:37:04;19.40;;;9.20;;
14722;SDS011;7452;55.594;12.986;2023-03-31T12:39:43;21.03;;;9.43;;
14722;SDS011;7452;55.594;12.986;2023-03-31T12:45:29;20.40;;;8.97;;
14722;SDS011;7452;55.594;12.986;2023-03-31T12:48:05;20.83;;;9.07;;
14722;SDS011;7452;55.594;12.986;2023-03-31T12:50:53;21.27;;;8.33;;
14722;SDS011;7452;55.594;12.986;2023-03-31T12:53:28;22.17;;;10.17;;
14722;SDS011;7452;55.594;12.986;2023-03-31T12:56:04;22.27;;;9.57;;
14722;SDS011;7452;55.594;12.986;2023-03-31T12:58:35;19.50;;;9.30;;
14722;SDS011;7452;55.594;12.986;2023-03-31T13:01:17;21.07;;;8.73;;
14722;SDS011;7452;55.594;12.986;2023-03-31T13:03:49;23.73;;;9.77;;
14722;SDS011;7452;55.594;12.986;2023-03-31T13:12:25;20.93;;;8.10;;
14722;SDS011;7452;55.594;12.986;2023-03-31T13:14:57;23.13;;;9.17;;
14722;SDS011;7452;55.594;12.986;2023-03-31T13:17:25;22.13;;;9.03;;
14722;SDS011;7452;55.594;12.986;2023-03-31T13:19:54;20.03;;;8.07;;
14722;SDS011;7452;55.594;12.986;2023-03-31T13:22:30;20.77;;;8.67;;
14722;SDS011;7452;55.594;12.986;2023-03-31T13:28:13;24.47;;;9.10;;
14722;SDS011;7452;55.594;12.986;2023-03-31T13:30:55;24.67;;;8.93;;
14722;SDS011;7452;55.594;12.986;2023-03-31T13:33:26;20.57;;;9.37;;
14722;SDS011;7452;55.594;12.986;2023-03-31T13:36:08;16.83;;;9.50;;
14722;SDS011;7452;55.594;12.986;2023-03-31T13:39:12;17.00;;;9.20;;
14722;SDS011;7452;55.594;12.986;2023-03-31T13:42:22;20.00;;;8.57;;
14722;SDS011;7452;55.594;12.986;2023-03-31T13:45:11;19.77;;;8.30;;
14722;SDS011;7452;55.594;12.986;2023-03-31T13:47:50;14.73;;;7.97;;
14722;SDS011;7452;55.594;12.986;2023-03-31T13:50:29;16.97;;;7.83;;
14722;SDS011;7452;55.594;12.986;2023-03-31T13:53:15;16.77;;;8.50;;
14722;SDS011;7452;55.594;12.986;2023-03-31T13:56:07;17.10;;;7.73;;
14722;SDS011;7452;55.594;12.986;2023-03-31T14:01:52;16.07;;;7.30;;
14722;SDS011;7452;55.594;12.986;2023-03-31T14:04:38;14.43;;;7.60;;
14722;SDS011;7452;55.594;12.986;2023-03-31T14:07:21;17.77;;;7.47;;
14722;SDS011;7452;55.594;12.986;2023-03-31T14:09:56;16.23;;;7.53;;
14722;SDS011;7452;55.594;12.986;2023-03-31T14:12:28;14.50;;;7.60;;
14722;SDS011;7452;55.594;12.986;2023-03-31T14:14:57;11.33;;;7.10;;
14722;SDS011;7452;55.594;12.986;2023-03-31T14:17:26;13.93;;;7.53;;
14722;SDS011;7452;55.594;12.986;2023-03-31T14:22:57;16.37;;;8.30;;
14722;SDS011;7452;55.594;12.986;2023-03-31T14:25:39;15.93;;;10.00;;
14722;SDS011;7452;55.594;12.986;2023-03-31T14:28:17;11.97;;;7.67;;
14722;SDS011;7452;55.594;12.986;2023-03-31T14:31:00;17.30;;;9.80;;
14722;SDS011;7452;55.594;12.986;2023-03-31T14:33:43;12.90;;;7.40;;
14722;SDS011;7452;55.594;12.986;2023-03-31T14:36:19;9.43;;;6.60;;
14722;SDS011;7452;55.594;12.986;2023-03-31T14:38:52;11.93;;;6.90;;
14722;SDS011;7452;55.594;12.986;2023-03-31T14:41:20;14.33;;;9.77;;
14722;SDS011;7452;55.594;12.986;2023-03-31T14:43:53;11.67;;;8.07;;
14722;SDS011;7452;55.594;12.986;2023-03-31T14:46:22;13.03;;;7.53;;
14722;SDS011;7452;55.594;12.986;2023-03-31T14:48:51;13.13;;;7.30;;
14722;SDS011;7452;55.594;12.986;2023-03-31T14:51:22;13.37;;;6.90;;
14722;SDS011;7452;55.594;12.986;2023-03-31T14:53:54;12.27;;;6.43;;
14722;SDS011;7452;55.594;12.986;2023-03-31T14:56:23;13.10;;;6.40;;
14722;SDS011;7452;55.594;12.986;2023-03-31T14:58:57;10.90;;;6.30;;
14722;SDS011;7452;55.594;12.986;2023-03-31T15:01:27;12.73;;;6.93;;
14722;SDS011;7452;55.594;12.986;2023-03-31T15:03:59;10.00;;;6.20;;
14722;SDS011;7452;55.594;12.986;2023-03-31T15:06:29;13.23;;;5.90;;
14722;SDS011;7452;55.594;12.986;2023-03-31T15:08:59;11.50;;;6.10;;
14722;SDS011;7452;55.594;12.986;2023-03-31T15:11:29;7.83;;;4.23;;
14722;SDS011;7452;55.594;12.986;2023-03-31T15:13:56;5.33;;;3.10;;
14722;SDS011;7452;55.594;12.986;2023-03-31T15:16:29;2.80;;;2.50;;
14722;SDS011;7452;55.594;12.986;2023-03-31T15:19:03;4.07;;;2.87;;
14722;SDS011;7452;55.594;12.986;2023-03-31T15:21:37;3.37;;;2.60;;
14722;SDS011;7452;55.594;12.986;2023-03-31T15:24:04;3.90;;;2.67;;
14722;SDS011;7452;55.594;12.986;2023-03-31T15:26:33;4.00;;;2.60;;
14722;SDS011;7452;55.594;12.986;2023-03-31T15:29:03;5.33;;;2.67;;
14722;SDS011;7452;55.594;12.986;2023-03-31T15:31:33;3.43;;;3.13;;
14722;SDS011;7452;55.594;12.986;2023-03-31T15:34:12;5.17;;;3.00;;
14722;SDS011;7452;55.594;12.986;2023-03-31T15:36:40;5.03;;;3.20;;
14722;SDS011;7452;55.594;12.986;2023-03-31T15:39:09;3.50;;;3.03;;
14722;SDS011;7452;55.594;12.986;2023-03-31T15:41:38;4.00;;;3.07;;